createdAt,value
2018-04-07T00:02:11.386Z,8.00
2018-04-07T00:04:38.830Z,8.10
2018-04-07T00:07:07.035Z,8.10
2018-04-07T00:09:34.458Z,8.00
2018-04-07T00:12:02.677Z,8.00
2018-04-07T00:14:30.112Z,8.00
2018-04-07T00:16:57.539Z,8.00
2018-04-07T00:19:25.738Z,8.00
2018-04-07T00:21:53.165Z,7.90
2018-04-07T00:24:21.357Z,7.90
2018-04-07T00:26:48.796Z,7.90
2018-04-07T00:29:16.977Z,7.80
2018-04-07T00:31:45.184Z,7.80
2018-04-07T00:34:12.621Z,7.70
2018-04-07T00:36:40.114Z,7.80
2018-04-07T00:39:07.554Z,7.80
2018-04-07T00:41:34.981Z,7.70
2018-04-07T00:44:03.174Z,7.60
2018-04-07T00:46:30.658Z,7.60
2018-04-07T00:48:58.082Z,7.60
2018-04-07T00:51:25.521Z,7.60
2018-04-07T00:53:53.734Z,7.50
2018-04-07T00:56:21.162Z,7.50
2018-04-07T00:58:48.766Z,7.50
2018-04-07T01:01:16.187Z,7.40
2018-04-07T01:03:43.614Z,7.40
2018-04-07T01:06:11.047Z,7.40
2018-04-07T01:08:38.470Z,7.40
2018-04-07T01:11:05.909Z,7.40
2018-04-07T01:13:33.355Z,7.40
2018-04-07T01:16:01.566Z,7.20
2018-04-07T01:18:28.994Z,7.10
2018-04-07T01:20:56.438Z,7.20
2018-04-07T01:23:24.617Z,7.20
2018-04-07T01:25:52.113Z,7.10
2018-04-07T01:28:19.557Z,7.10
2018-04-07T01:30:47.002Z,7.10
2018-04-07T01:33:14.430Z,7.00
2018-04-07T01:35:42.884Z,7.10
2018-04-07T01:38:11.816Z,7.00
2018-04-07T01:40:40.001Z,7.10
2018-04-07T01:43:07.442Z,7.00
2018-04-07T01:45:35.969Z,7.00
2018-04-07T01:48:03.407Z,7.00
2018-04-07T01:50:30.834Z,7.00
2018-04-07T01:52:59.046Z,7.10
2018-04-07T01:55:26.479Z,7.00
2018-04-07T01:57:53.919Z,7.10
2018-04-07T02:00:22.116Z,7.00
2018-04-07T02:02:49.902Z,7.00
2018-04-07T02:05:17.333Z,7.00
2018-04-07T02:07:44.763Z,6.90
2018-04-07T02:10:12.961Z,6.90
2018-04-07T02:12:40.401Z,6.80
2018-04-07T02:15:08.589Z,6.90
2018-04-07T02:17:36.027Z,6.80
2018-04-07T02:20:04.223Z,6.90
2018-04-07T02:22:31.666Z,6.80
2018-04-07T02:24:59.854Z,6.80
2018-04-07T02:27:27.654Z,6.70
2018-04-07T02:29:55.087Z,6.80
2018-04-07T02:32:22.518Z,6.70
2018-04-07T02:34:49.974Z,6.70
2018-04-07T02:37:18.165Z,6.60
2018-04-07T02:39:45.610Z,6.60
2018-04-07T02:42:13.046Z,6.60
2018-04-07T02:44:41.248Z,6.60
2018-04-07T02:47:09.046Z,6.60
2018-04-07T02:49:36.474Z,6.50
2018-04-07T02:52:03.906Z,6.40
2018-04-07T02:54:32.103Z,6.40
2018-04-07T02:56:59.542Z,6.40
2018-04-07T02:59:27.742Z,6.50
2018-04-07T03:01:55.707Z,6.50
2018-04-07T03:04:23.140Z,6.60
2018-04-07T03:06:51.330Z,6.60
2018-04-07T03:09:18.778Z,6.50
2018-04-07T03:11:46.235Z,6.60
2018-04-07T03:14:13.668Z,6.60
2018-04-07T03:16:41.113Z,6.60
2018-04-07T03:19:08.541Z,6.60
2018-04-07T03:21:35.986Z,6.50
2018-04-07T03:24:03.434Z,6.50
2018-04-07T03:26:30.862Z,6.50
2018-04-07T03:28:59.070Z,6.50
2018-04-07T03:31:26.504Z,6.40
2018-04-07T03:33:54.942Z,6.40
2018-04-07T03:36:22.377Z,6.40
2018-04-07T03:38:49.810Z,6.40
2018-04-07T03:41:17.254Z,6.40
2018-04-07T03:43:44.692Z,6.40
2018-04-07T03:46:13.253Z,6.30
2018-04-07T03:48:40.668Z,6.20
2018-04-07T03:51:08.099Z,6.30
2018-04-07T03:53:36.302Z,6.20
2018-04-07T03:56:03.754Z,6.10
2018-04-07T03:58:31.186Z,6.10
2018-04-07T04:03:29.779Z,6.10
2018-04-07T04:05:57.985Z,6.20
2018-04-07T04:08:25.410Z,6.10
2018-04-07T04:10:53.616Z,6.30
2018-04-07T04:13:21.058Z,6.20
2018-04-07T04:15:48.506Z,6.30
2018-04-07T04:18:17.032Z,6.20
2018-04-07T04:20:44.463Z,6.10
2018-04-07T04:23:11.881Z,6.20
2018-04-07T04:25:40.421Z,6.10
2018-04-07T04:28:07.870Z,6.10
2018-04-07T04:30:35.312Z,6.10
2018-04-07T04:33:02.746Z,6.10
2018-04-07T04:35:31.053Z,6.00
2018-04-07T04:37:58.469Z,6.00
2018-04-07T04:40:26.690Z,5.90
2018-04-07T04:42:54.125Z,5.90
2018-04-07T04:45:21.571Z,5.90
2018-04-07T04:47:49.006Z,5.90
2018-04-07T04:50:17.269Z,5.90
2018-04-07T04:52:44.681Z,5.80
2018-04-07T04:55:12.142Z,5.90
2018-04-07T04:57:39.571Z,5.90
2018-04-07T05:00:06.998Z,5.90
2018-04-07T05:02:34.621Z,5.90
2018-04-07T05:05:02.066Z,5.90
2018-04-07T05:07:29.489Z,6.00
2018-04-07T05:09:57.698Z,6.00
2018-04-07T05:12:25.174Z,5.90
2018-04-07T05:14:52.597Z,6.00
2018-04-07T05:17:20.033Z,6.00
2018-04-07T05:19:48.247Z,6.00
2018-04-07T05:22:15.689Z,5.90
2018-04-07T05:24:43.478Z,6.00
2018-04-07T05:27:10.907Z,6.00
2018-04-07T05:29:38.337Z,6.00
2018-04-07T05:32:06.549Z,6.10
2018-04-07T05:34:33.983Z,6.00
2018-04-07T05:37:01.427Z,6.10
2018-04-07T05:39:28.858Z,6.10
2018-04-07T05:41:56.307Z,6.10
2018-04-07T05:44:23.755Z,6.10
2018-04-07T05:46:51.211Z,6.20
2018-04-07T05:49:18.671Z,6.20
2018-04-07T05:51:46.099Z,6.20
2018-04-07T05:54:13.524Z,6.30
2018-04-07T05:56:41.721Z,6.40
2018-04-07T05:59:09.160Z,6.30
2018-04-07T06:01:37.356Z,6.50
2018-04-07T06:04:04.779Z,6.40
2018-04-07T06:06:32.997Z,6.60
2018-04-07T06:09:00.450Z,6.50
2018-04-07T06:11:27.878Z,6.60
2018-04-07T06:13:56.096Z,6.70
2018-04-07T06:16:23.546Z,6.60
2018-04-07T06:18:50.999Z,6.70
2018-04-07T06:21:18.457Z,6.90
2018-04-07T06:23:45.907Z,6.90
2018-04-07T06:26:13.331Z,7.00
2018-04-07T06:28:41.561Z,7.00
2018-04-07T06:31:09.139Z,6.90
2018-04-07T06:33:36.575Z,7.10
2018-04-07T06:36:04.033Z,7.20
2018-04-07T06:38:31.471Z,7.30
2018-04-07T06:40:58.924Z,7.40
2018-04-07T06:43:26.341Z,7.50
2018-04-07T06:45:54.554Z,7.70
2018-04-07T06:48:22.027Z,7.60
2018-04-07T06:50:49.468Z,7.80
2018-04-07T06:53:16.912Z,7.90
2018-04-07T06:55:44.335Z,7.90
2018-04-07T06:58:12.542Z,8.00
2018-04-07T07:00:39.998Z,8.00
2018-04-07T07:03:08.307Z,8.20
2018-04-07T07:05:35.753Z,8.20
2018-04-07T07:08:03.174Z,8.30
2018-04-07T07:10:30.623Z,8.40
2018-04-07T07:12:58.814Z,8.80
2018-04-07T07:15:26.238Z,8.80
2018-04-07T07:17:53.688Z,9.20
2018-04-07T07:20:21.891Z,9.50
2018-04-07T07:22:50.090Z,9.80
2018-04-07T07:25:17.545Z,9.80
2018-04-07T07:27:44.990Z,10.00
2018-04-07T07:30:12.442Z,10.40
2018-04-07T07:32:39.874Z,10.80
2018-04-07T07:35:08.069Z,11.30
2018-04-07T07:37:35.514Z,11.20
2018-04-07T07:40:03.731Z,11.90
2018-04-07T07:42:31.299Z,11.80
2018-04-07T07:44:58.737Z,12.10
2018-04-07T07:47:26.180Z,12.50
2018-04-07T07:49:54.595Z,13.00
2018-04-07T07:52:22.799Z,13.40
2018-04-07T07:54:51.006Z,14.00
2018-04-07T07:57:18.813Z,13.90
2018-04-07T07:59:46.255Z,14.00
2018-04-07T08:02:13.682Z,14.30
2018-04-07T08:04:41.129Z,14.80
2018-04-07T08:07:09.327Z,15.50
2018-04-07T08:09:36.788Z,15.40
2018-04-07T08:12:04.226Z,15.70
2018-04-07T08:14:31.666Z,16.00
2018-04-07T08:16:59.874Z,16.70
2018-04-07T08:19:27.305Z,16.60
2018-04-07T08:21:55.503Z,17.40
2018-04-07T08:24:23.295Z,17.30
2018-04-07T08:26:50.722Z,17.60
2018-04-07T08:29:18.167Z,18.10
2018-04-07T08:31:45.613Z,18.40
2018-04-07T08:34:13.802Z,18.90
2018-04-07T08:36:41.268Z,18.80
2018-04-07T08:39:08.699Z,19.10
2018-04-07T08:41:36.906Z,20.00
2018-04-07T08:44:04.338Z,20.00
2018-04-07T08:46:31.792Z,20.00
2018-04-07T08:48:59.998Z,20.80
2018-04-07T08:51:27.647Z,20.70
2018-04-07T08:53:55.090Z,21.10
2018-04-07T08:56:22.530Z,21.20
2018-04-07T08:58:50.731Z,21.70
2018-04-07T09:01:18.194Z,21.70
2018-04-07T09:03:45.689Z,22.20
2018-04-07T09:06:13.075Z,22.30
2018-04-07T09:08:41.279Z,22.50
2018-04-07T09:11:08.711Z,22.40
2018-04-07T09:13:36.175Z,22.90
2018-04-07T09:16:03.659Z,23.10
2018-04-07T09:18:31.111Z,23.30
2018-04-07T09:20:58.534Z,23.40
2018-04-07T09:23:26.244Z,23.70
2018-04-07T09:25:53.691Z,23.90
2018-04-07T09:28:21.107Z,23.90
2018-04-07T09:30:49.317Z,24.20
2018-04-07T09:33:16.745Z,24.20
2018-04-07T09:35:44.186Z,24.50
2018-04-07T09:38:12.400Z,25.10
2018-04-07T09:40:39.829Z,25.00
2018-04-07T09:43:07.263Z,25.40
2018-04-07T09:45:35.468Z,25.70
2018-04-07T09:48:02.926Z,25.60
2018-04-07T09:50:30.355Z,25.90
2018-04-07T09:52:58.557Z,26.40
2018-04-07T09:55:26.010Z,26.40
2018-04-07T09:57:53.466Z,26.60
2018-04-07T10:00:20.917Z,26.50
2018-04-07T10:02:48.351Z,26.60
2018-04-07T10:05:16.807Z,27.20
2018-04-07T10:07:44.230Z,27.10
2018-04-07T10:10:11.659Z,26.90
2018-04-07T10:12:39.865Z,27.30
2018-04-07T10:15:07.318Z,27.20
2018-04-07T10:17:35.101Z,27.40
2018-04-07T10:20:02.537Z,27.30
2018-04-07T10:22:30.006Z,27.50
2018-04-07T10:24:57.452Z,27.50
2018-04-07T10:27:24.881Z,27.70
2018-04-07T10:29:53.091Z,28.10
2018-04-07T10:32:20.592Z,28.00
2018-04-07T10:34:48.806Z,28.50
2018-04-07T10:37:16.246Z,28.40
2018-04-07T10:39:43.732Z,28.60
2018-04-07T10:42:11.166Z,28.00
2018-04-07T10:44:38.595Z,27.60
2018-04-07T10:47:06.821Z,27.30
2018-04-07T10:49:34.253Z,27.20
2018-04-07T10:52:01.693Z,27.20
2018-04-07T10:54:29.922Z,28.00
2018-04-07T10:56:57.354Z,27.90
2018-04-07T10:59:24.794Z,28.40
2018-04-07T11:01:52.243Z,29.10
2018-04-07T11:04:20.447Z,28.70
2018-04-07T11:06:47.900Z,28.60
2018-04-07T11:09:15.331Z,28.70
2018-04-07T11:11:43.763Z,27.50
2018-04-07T11:14:11.222Z,27.50
2018-04-07T11:16:38.663Z,28.00
2018-04-07T11:19:06.142Z,28.80
2018-04-07T11:21:33.583Z,29.30
2018-04-07T11:24:01.027Z,29.70
2018-04-07T11:26:28.458Z,29.80
2018-04-07T11:28:55.935Z,29.80
2018-04-07T11:31:24.120Z,30.00
2018-04-07T11:33:51.578Z,30.00
2018-04-07T11:36:19.354Z,29.50
2018-04-07T11:38:46.785Z,29.20
2018-04-07T11:41:14.878Z,28.80
2018-04-07T11:43:42.337Z,28.70
2018-04-07T11:46:09.770Z,28.90
2018-04-07T11:48:37.204Z,28.60
2018-04-07T11:51:04.653Z,27.70
2018-04-07T11:53:32.868Z,26.50
2018-04-07T11:56:00.376Z,26.40
2018-04-07T11:58:28.576Z,25.70
2018-04-07T12:00:56.025Z,25.60
2018-04-07T12:03:23.451Z,25.30
2018-04-07T12:05:50.904Z,24.90
2018-04-07T12:08:18.337Z,24.80
2018-04-07T12:10:45.773Z,24.70
2018-04-07T12:13:13.979Z,24.40
2018-04-07T12:15:41.413Z,24.30
2018-04-07T12:18:08.857Z,24.20
2018-04-07T12:20:36.302Z,23.90
2018-04-07T12:23:03.739Z,23.70
2018-04-07T12:25:31.952Z,23.10
2018-04-07T12:27:59.405Z,23.00
2018-04-07T12:30:27.210Z,22.90
2018-04-07T12:32:54.626Z,22.90
2018-04-07T12:35:22.068Z,22.70
2018-04-07T12:37:49.498Z,22.80
2018-04-07T12:40:17.720Z,22.80
2018-04-07T12:42:45.176Z,22.70
2018-04-07T12:45:12.623Z,22.80
2018-04-07T12:47:40.055Z,22.80
2018-04-07T12:50:08.281Z,22.80
2018-04-07T12:52:35.731Z,22.70
2018-04-07T12:55:03.199Z,22.60
2018-04-07T12:57:30.630Z,22.40
2018-04-07T12:59:58.060Z,22.40
2018-04-07T13:02:25.502Z,22.60
2018-04-07T13:04:53.752Z,22.70
2018-04-07T13:07:21.191Z,22.60
2018-04-07T13:09:48.955Z,22.60
2018-04-07T13:12:16.384Z,22.60
2018-04-07T13:14:43.828Z,22.80
2018-04-07T13:17:12.027Z,22.80
2018-04-07T13:19:39.462Z,22.80
2018-04-07T13:22:06.905Z,22.60
2018-04-07T13:24:34.353Z,22.60
2018-04-07T13:27:02.574Z,22.60
2018-04-07T13:29:30.000Z,22.60
2018-04-07T13:31:57.430Z,22.60
2018-04-07T13:34:25.651Z,22.50
2018-04-07T13:36:53.105Z,22.50
2018-04-07T13:39:20.525Z,22.60
2018-04-07T13:41:48.747Z,22.60
2018-04-07T13:44:16.193Z,22.60
2018-04-07T13:46:43.631Z,22.70
2018-04-07T13:49:11.065Z,22.70
2018-04-07T13:51:39.285Z,22.70
2018-04-07T13:54:06.735Z,22.70
2018-04-07T13:56:34.172Z,22.70
2018-04-07T13:59:01.614Z,22.70
2018-04-07T14:01:29.808Z,22.40
2018-04-07T14:03:57.259Z,22.40
2018-04-07T14:06:24.690Z,22.40
2018-04-07T14:08:52.938Z,22.00
2018-04-07T14:11:20.365Z,21.90
2018-04-07T14:13:47.805Z,21.80
2018-04-07T15:38:12.379Z,21.50
2018-04-07T15:40:39.806Z,20.10
2018-04-07T15:43:07.260Z,20.00
2018-04-07T15:45:34.688Z,20.00
2018-04-07T15:48:02.902Z,19.80
2018-04-07T15:50:30.340Z,19.80
2018-04-07T15:52:57.797Z,19.80
2018-04-07T15:55:25.219Z,19.70
2018-04-07T15:57:53.434Z,19.70
2018-04-07T16:00:20.891Z,19.70
2018-04-07T16:02:48.335Z,19.70
2018-04-07T16:05:15.802Z,19.60
2018-04-07T16:07:43.228Z,19.60
2018-04-07T16:10:11.442Z,19.50
2018-04-07T16:12:38.903Z,19.40
2018-04-07T16:15:06.346Z,19.40
2018-04-07T16:17:33.797Z,19.30
2018-04-07T16:20:01.231Z,19.20
2018-04-07T16:22:29.431Z,19.00
2018-04-07T16:24:56.996Z,18.90
2018-04-07T16:27:24.434Z,18.90
2018-04-07T16:29:51.880Z,18.90
2018-04-07T16:32:20.090Z,18.80
2018-04-07T16:34:47.540Z,18.70
2018-04-07T16:37:14.966Z,18.70
2018-04-07T16:39:43.187Z,18.60
2018-04-07T16:42:10.634Z,18.50
2018-04-07T16:44:38.130Z,18.60
2018-04-07T16:47:05.571Z,18.50
2018-04-07T16:49:33.014Z,18.50
2018-04-07T16:52:00.467Z,18.50
2018-04-07T16:54:27.897Z,18.50
2018-04-07T16:56:55.353Z,18.40
2018-04-07T16:59:22.790Z,18.40
2018-04-07T17:01:50.993Z,18.30
2018-04-07T17:04:18.449Z,18.20
2018-04-07T17:06:45.890Z,18.30
2018-04-07T17:09:13.326Z,18.20
2018-04-07T17:11:41.538Z,18.10
2018-04-07T17:14:08.966Z,18.10
2018-04-07T17:16:37.212Z,18.00
2018-04-07T17:19:04.657Z,17.90
2018-04-07T17:21:32.299Z,17.90
2018-04-07T17:23:59.759Z,17.90
2018-04-07T17:26:27.256Z,17.90
2018-04-07T17:28:54.691Z,17.80
2018-04-07T17:31:22.119Z,17.80
2018-04-07T17:33:49.546Z,17.70
2018-04-07T17:36:16.987Z,17.70
2018-04-07T17:38:45.200Z,17.60
2018-04-07T17:41:13.651Z,17.60
2018-04-07T17:43:41.849Z,17.50
2018-04-07T17:46:09.277Z,17.50
2018-04-07T17:48:37.502Z,17.40
2018-04-07T17:51:04.951Z,17.40
2018-04-07T17:53:32.536Z,17.40
2018-04-07T17:55:59.977Z,17.30
2018-04-07T17:58:27.437Z,17.30
2018-04-07T18:00:54.875Z,17.20
2018-04-07T18:03:22.354Z,17.20
2018-04-07T18:05:49.792Z,17.20
2018-04-07T18:08:17.225Z,17.10
2018-04-07T18:10:44.678Z,17.00
2018-04-07T18:13:12.128Z,16.90
2018-04-07T18:15:39.554Z,16.90
2018-04-07T18:18:07.010Z,16.90
2018-04-07T18:20:34.459Z,16.80
2018-04-07T18:23:01.907Z,16.80
2018-04-07T18:25:29.348Z,16.70
2018-04-07T18:27:56.811Z,16.60
2018-04-07T18:30:25.040Z,16.60
2018-04-07T18:32:53.240Z,16.50
2018-04-07T18:35:20.674Z,16.50
2018-04-07T18:37:48.117Z,16.50
2018-04-07T18:40:16.358Z,16.40
2018-04-07T18:42:43.826Z,16.30
2018-04-07T18:45:12.267Z,16.30
2018-04-07T18:47:39.707Z,16.30
2018-04-07T18:50:07.221Z,16.20
2018-04-07T18:52:35.426Z,16.20
2018-04-07T18:55:03.650Z,16.10
2018-04-07T18:57:31.115Z,16.10
2018-04-07T18:59:58.562Z,16.00
2018-04-07T19:02:25.997Z,16.00
2018-04-07T19:04:53.455Z,15.90
2018-04-07T19:07:20.893Z,15.90
2018-04-07T19:09:48.417Z,15.90
2018-04-07T19:12:15.938Z,15.80
2018-04-07T19:14:43.380Z,15.80
2018-04-07T19:17:10.815Z,15.70
2018-04-07T19:19:39.036Z,15.60
2018-04-07T19:22:06.468Z,15.60
2018-04-07T19:24:33.953Z,15.60
2018-04-07T19:27:01.422Z,15.60
2018-04-07T19:29:28.920Z,15.50
2018-04-07T19:31:57.225Z,15.40
2018-04-07T19:34:24.663Z,15.40
2018-04-07T19:36:52.097Z,15.40
2018-04-07T19:39:20.579Z,15.30
2018-04-07T19:41:47.994Z,15.20
2018-04-07T19:44:15.430Z,15.30
2018-04-07T19:46:42.870Z,15.30
2018-04-07T19:49:10.319Z,15.20
2018-04-07T19:51:37.766Z,15.10
2018-04-07T19:54:06.302Z,15.10
2018-04-07T19:56:34.570Z,15.00
2018-04-07T19:59:02.124Z,15.00
2018-04-07T20:01:29.704Z,15.00
2018-04-07T20:03:57.142Z,15.00
2018-04-07T20:06:24.909Z,14.90
2018-04-07T20:08:52.353Z,14.90
2018-04-07T20:11:19.917Z,14.80
2018-04-07T20:13:47.494Z,14.80
2018-04-07T20:16:14.941Z,14.80
2018-04-07T20:18:42.382Z,14.80
2018-04-07T20:21:09.825Z,14.70
2018-04-07T20:23:37.272Z,14.70
2018-04-07T20:26:04.713Z,14.70
2018-04-07T20:28:32.938Z,14.50
2018-04-07T20:31:00.376Z,14.50
2018-04-07T20:33:27.829Z,14.50
2018-04-07T20:35:55.395Z,14.50
2018-04-07T20:38:22.852Z,14.40
2018-04-07T20:40:57.054Z,14.40
2018-04-07T20:43:24.528Z,14.40
2018-04-07T20:45:51.974Z,14.30
2018-04-07T20:48:19.413Z,14.30
2018-04-07T20:50:47.009Z,14.20
2018-04-07T20:53:14.454Z,14.20
2018-04-07T20:55:41.914Z,14.20
2018-04-07T20:58:09.366Z,14.10
2018-04-07T21:00:37.053Z,14.10
2018-04-07T21:03:04.493Z,14.00
2018-04-07T21:05:32.044Z,14.00
2018-04-07T21:07:59.481Z,13.90
2018-04-07T21:10:26.926Z,13.90
2018-04-07T21:12:55.134Z,13.80
2018-04-07T21:15:22.590Z,13.80
2018-04-07T21:17:50.031Z,13.80
2018-04-07T21:20:17.472Z,13.80
2018-04-07T21:22:45.776Z,13.70
2018-04-07T21:25:13.194Z,13.60
2018-04-07T21:27:41.426Z,13.60
2018-04-07T21:30:08.877Z,13.60
2018-04-07T21:32:36.328Z,13.60
2018-04-07T21:35:03.743Z,13.50
2018-04-07T21:37:31.955Z,13.40
2018-04-07T21:39:59.380Z,13.40
2018-04-07T21:42:26.819Z,13.40
2018-04-07T21:44:54.265Z,13.30
2018-04-07T21:47:21.702Z,13.30
2018-04-07T21:49:49.234Z,13.30
2018-04-07T21:52:16.663Z,13.20
2018-04-07T21:54:44.883Z,13.20
2018-04-07T21:57:12.318Z,13.10
2018-04-07T21:59:39.745Z,13.20
2018-04-07T22:02:07.938Z,13.10
2018-04-07T22:04:35.386Z,13.10
2018-04-07T22:07:02.818Z,13.10
2018-04-07T22:09:31.279Z,13.20
2018-04-07T22:11:58.725Z,13.10
2018-04-07T22:14:27.218Z,13.10
2018-04-07T22:16:54.740Z,13.00
2018-04-07T22:19:22.172Z,13.00
2018-04-07T22:21:50.387Z,13.00
2018-04-07T22:24:17.826Z,12.90
2018-04-07T22:26:45.286Z,12.90
2018-04-07T22:29:12.727Z,12.90
2018-04-07T22:31:40.162Z,12.90
2018-04-07T22:34:08.371Z,12.80
2018-04-07T22:36:35.814Z,12.70
2018-04-07T22:39:03.243Z,12.80
2018-04-07T22:41:31.457Z,12.70
2018-04-07T22:43:59.025Z,12.60
2018-04-07T22:46:26.458Z,12.60
2018-04-07T22:48:53.895Z,12.60
2018-04-07T22:51:22.105Z,12.50
2018-04-07T22:53:49.558Z,12.40
2018-04-07T22:56:16.994Z,12.40
2018-04-07T22:58:45.192Z,12.30
2018-04-07T23:01:12.644Z,12.30
2018-04-07T23:03:40.107Z,12.30
2018-04-07T23:06:07.543Z,12.30
2018-04-07T23:08:35.001Z,12.20
2018-04-07T23:11:02.449Z,12.20
2018-04-07T23:13:30.649Z,12.10
2018-04-07T23:15:58.080Z,12.00
2018-04-07T23:18:26.285Z,12.10
2018-04-07T23:20:53.736Z,12.00
2018-04-07T23:23:21.173Z,12.10
2018-04-07T23:25:48.618Z,12.00
2018-04-07T23:28:17.045Z,11.90
2018-04-07T23:30:44.485Z,11.80
2018-04-07T23:33:11.910Z,11.90
2018-04-07T23:35:40.124Z,11.80
2018-04-07T23:38:07.557Z,11.80
2018-04-07T23:40:35.354Z,11.90
2018-04-07T23:43:02.781Z,11.80
2018-04-07T23:45:30.281Z,11.80
2018-04-07T23:47:57.722Z,11.70
2018-04-07T23:50:25.160Z,11.70
2018-04-07T23:52:52.613Z,11.70
2018-04-07T23:55:20.034Z,11.60
2018-04-07T23:57:48.239Z,11.50
